Time;durP1;ratioP1;P1;durP2;ratioP2;P2;SDS_P1;SDS_P2;PMS_P1;PMS_P2;Temp;Humidity;BMP_temperature;BMP_pressure;BME280_temperature;BME280_humidity;BME280_pressure;Samples;Min_cycle;Max_cycle;Signal;HPM_P1;HPM_P2
2022/11/06 00:00:49;;;;;;;12.85;3.22;;;13.70;99.90;;;;;;5045716;28;20040;-79
2022/11/06 00:03:15;;;;;;;11.50;3.03;;;13.60;99.90;;;;;;5058349;28;20103;-74
2022/11/06 00:08:32;;;;;;;13.88;3.08;;;13.60;99.90;;;;;;5058862;28;20043;-74
2022/11/06 00:10:58;;;;;;;13.68;3.03;;;13.70;99.90;;;;;;5068558;28;20021;-76
2022/11/06 00:13:23;;;;;;;7.97;2.50;;;13.60;99.90;;;;;;5070005;28;20398;-73
2022/11/06 00:15:49;;;;;;;14.48;3.92;;;13.60;99.90;;;;;;5052598;28;20040;-74
2022/11/06 00:18:15;;;;;;;16.27;3.80;;;13.60;99.90;;;;;;5071740;28;20090;-73
2022/11/06 00:20:40;;;;;;;19.77;4.00;;;13.60;99.90;;;;;;5064119;28;20025;-73
2022/11/06 00:23:06;;;;;;;14.73;3.10;;;13.60;99.90;;;;;;5069525;28;20459;-72
2022/11/06 00:25:31;;;;;;;15.35;3.25;;;13.70;99.90;;;;;;5070238;28;20117;-73
2022/11/06 00:27:57;;;;;;;15.30;2.75;;;13.70;99.90;;;;;;5051554;28;20035;-73
2022/11/06 00:30:22;;;;;;;17.17;3.33;;;13.70;99.90;;;;;;5070016;28;20040;-74
2022/11/06 00:32:48;;;;;;;14.32;2.88;;;13.70;99.90;;;;;;5070397;28;20036;-73
2022/11/06 00:35:14;;;;;;;9.85;2.58;;;13.70;99.90;;;;;;5069580;28;20036;-73
2022/11/06 00:37:39;;;;;;;9.88;2.53;;;13.70;99.90;;;;;;5069516;28;20029;-74
2022/11/06 00:40:05;;;;;;;14.27;3.03;;;13.70;99.90;;;;;;5069201;28;20082;-74
2022/11/06 00:42:31;;;;;;;13.30;3.50;;;13.70;99.90;;;;;;5066074;28;20063;-73
2022/11/06 00:44:57;;;;;;;13.27;3.10;;;13.70;99.90;;;;;;5048327;28;20063;-75
2022/11/06 00:47:23;;;;;;;16.10;3.38;;;13.70;99.90;;;;;;5050554;28;20157;-72
2022/11/06 00:49:49;;;;;;;15.40;3.20;;;13.70;99.90;;;;;;5068879;28;20035;-74
2022/11/06 00:52:14;;;;;;;16.13;3.28;;;13.70;99.90;;;;;;5060664;28;20032;-73
2022/11/06 00:54:40;;;;;;;14.23;3.50;;;13.70;99.90;;;;;;5068360;28;20097;-73
2022/11/06 00:57:06;;;;;;;15.05;3.72;;;13.70;99.90;;;;;;5049838;28;20040;-74
2022/11/06 00:59:31;;;;;;;17.25;3.50;;;13.80;99.90;;;;;;5051169;28;20452;-73
2022/11/06 01:01:57;;;;;;;15.40;3.38;;;13.70;99.90;;;;;;5068760;28;20518;-74
2022/11/06 01:04:24;;;;;;;10.40;2.72;;;13.80;99.90;;;;;;5068404;28;20057;-75
2022/11/06 01:06:52;;;;;;;10.18;2.40;;;13.70;99.90;;;;;;5050473;28;20047;-74
2022/11/06 01:09:20;;;;;;;14.45;2.95;;;13.80;99.90;;;;;;5068793;28;20083;-76
2022/11/06 01:11:49;;;;;;;13.70;3.20;;;13.80;99.90;;;;;;5068283;28;20035;-76
2022/11/06 01:14:16;;;;;;;13.27;3.30;;;13.80;99.90;;;;;;5067536;28;20803;-74
2022/11/06 01:16:42;;;;;;;14.52;3.55;;;13.70;99.90;;;;;;5053003;28;20308;-74
2022/11/06 01:19:09;;;;;;;15.00;3.10;;;13.80;99.90;;;;;;5067846;28;20086;-73
2022/11/06 01:21:37;;;;;;;13.98;3.03;;;13.80;99.90;;;;;;5067262;28;20034;-74
2022/11/06 01:24:06;;;;;;;14.43;2.70;;;13.80;99.90;;;;;;5067562;28;20493;-74
2022/11/06 01:26:33;;;;;;;16.40;3.08;;;13.80;99.90;;;;;;5059647;28;20036;-74
2022/11/06 01:28:59;;;;;;;12.98;2.63;;;13.80;99.90;;;;;;5070055;28;20020;-74
2022/11/06 01:31:27;;;;;;;20.27;4.28;;;13.80;99.90;;;;;;5062075;28;20438;-74
2022/11/06 01:33:57;;;;;;;16.88;3.40;;;13.80;99.90;;;;;;5049833;28;20048;-73
2022/11/06 01:36:24;;;;;;;14.18;3.35;;;13.80;99.90;;;;;;5048030;28;20709;-73
2022/11/06 01:38:51;;;;;;;15.25;3.47;;;13.80;99.90;;;;;;5064511;28;20718;-73
2022/11/06 01:41:26;;;;;;;15.30;3.40;;;13.80;99.90;;;;;;5065475;28;20036;-72
2022/11/06 01:43:53;;;;;;;17.02;4.03;;;13.80;99.90;;;;;;5067730;28;20033;-74
2022/11/06 01:46:21;;;;;;;18.55;3.45;;;13.80;99.90;;;;;;5049112;28;20029;-73
2022/11/06 01:49:00;;;;;;;14.65;3.35;;;13.80;99.90;;;;;;5067438;28;20033;-74
2022/11/06 01:51:28;;;;;;;11.20;2.53;;;13.80;99.90;;;;;;5064878;28;20082;-73
2022/11/06 01:53:56;;;;;;;19.25;3.00;;;13.80;99.90;;;;;;5060910;28;20125;-73
2022/11/06 01:56:22;;;;;;;12.18;2.88;;;13.80;99.90;;;;;;5067510;28;20036;-74
2022/11/06 01:58:51;;;;;;;11.40;2.67;;;13.80;99.90;;;;;;5049381;28;20558;-77
2022/11/06 02:01:17;;;;;;;12.13;2.30;;;13.80;99.90;;;;;;5067505;28;20111;-79
2022/11/06 02:03:58;;;;;;;11.80;2.95;;;13.80;99.90;;;;;;5067500;28;20111;-76
2022/11/06 02:06:24;;;;;;;16.60;3.10;;;13.80;99.90;;;;;;5067238;28;20063;-75
2022/11/06 02:08:50;;;;;;;10.80;2.42;;;13.80;99.90;;;;;;5066242;28;20048;-76
2022/11/06 02:11:16;;;;;;;14.27;3.08;;;13.70;99.90;;;;;;5045779;28;20098;-77
2022/11/06 02:14:14;;;;;;;12.88;2.60;;;13.80;99.90;;;;;;5061054;28;20034;-77
2022/11/06 02:16:58;;;;;;;11.00;2.70;;;13.80;99.90;;;;;;5015833;28;20151;-75
2022/11/06 02:19:32;;;;;;;13.07;2.33;;;13.80;99.90;;;;;;5048223;28;20493;-77
2022/11/06 02:21:58;;;;;;;14.60;2.50;;;13.80;99.90;;;;;;5063356;28;20028;-77
2022/11/06 02:24:41;;;;;;;18.15;2.30;;;13.80;99.90;;;;;;5050051;28;20021;-76
2022/11/06 02:27:15;;;;;;;11.60;2.28;;;13.70;99.90;;;;;;5067111;28;20490;-76
2022/11/06 02:29:50;;;;;;;12.23;2.10;;;13.80;99.90;;;;;;5068132;28;20025;-75
2022/11/06 02:32:23;;;;;;;18.75;3.97;;;13.80;99.90;;;;;;5068170;28;20034;-73
2022/11/06 02:34:52;;;;;;;17.02;2.85;;;13.80;99.90;;;;;;5067676;28;20029;-75
2022/11/06 02:37:27;;;;;;;15.23;2.47;;;13.80;99.90;;;;;;5067333;28;20064;-78
2022/11/06 02:39:55;;;;;;;11.68;2.30;;;13.80;99.90;;;;;;5049073;28;20064;-76
2022/11/06 02:42:23;;;;;;;14.13;3.00;;;13.80;99.90;;;;;;5066897;28;20024;-73
2022/11/06 02:44:52;;;;;;;22.73;3.08;;;13.80;99.90;;;;;;5067194;28;20107;-76
2022/11/06 02:47:20;;;;;;;14.52;2.60;;;13.80;99.90;;;;;;5066544;28;20035;-80
2022/11/06 02:49:56;;;;;;;15.77;3.13;;;13.80;99.90;;;;;;5066357;28;20422;-75
2022/11/06 02:52:30;;;;;;;14.43;2.22;;;13.80;99.90;;;;;;5047916;28;20040;-77
2022/11/06 02:55:11;;;;;;;16.30;2.70;;;13.80;99.90;;;;;;5064888;28;20121;-75
2022/11/06 02:57:39;;;;;;;20.23;3.00;;;13.80;99.90;;;;;;5063675;28;20036;-77
2022/11/06 03:00:15;;;;;;;14.45;2.45;;;13.80;99.90;;;;;;5065427;28;20048;-80
2022/11/06 03:02:47;;;;;;;15.80;2.78;;;13.80;99.90;;;;;;5065562;28;20028;-78
2022/11/06 03:05:20;;;;;;;14.07;2.60;;;13.80;99.90;;;;;;5066140;28;20438;-76
2022/11/06 03:07:51;;;;;;;10.65;2.00;;;13.80;99.90;;;;;;5048077;28;20033;-74
2022/11/06 03:10:18;;;;;;;11.75;3.28;;;13.80;99.90;;;;;;5049216;28;20025;-75
2022/11/06 03:13:10;;;;;;;16.85;2.70;;;13.80;99.90;;;;;;5061486;28;20211;-76
2022/11/06 03:15:40;;;;;;;15.35;3.47;;;13.80;99.90;;;;;;5047943;28;20115;-77
2022/11/06 03:18:23;;;;;;;12.57;2.90;;;13.90;99.90;;;;;;5048562;28;20094;-77
2022/11/06 03:20:57;;;;;;;11.43;2.55;;;13.90;99.90;;;;;;5066371;28;20036;-74
2022/11/06 03:23:46;;;;;;;9.98;2.20;;;13.90;99.90;;;;;;5048312;28;20033;-76
2022/11/06 03:26:18;;;;;;;8.25;2.13;;;13.90;99.90;;;;;;5048392;28;20024;-77
2022/11/06 03:28:52;;;;;;;7.15;1.80;;;13.90;99.90;;;;;;5060134;28;20042;-77
2022/11/06 03:31:24;;;;;;;12.32;2.85;;;13.90;99.90;;;;;;5046538;28;20020;-78
2022/11/06 03:33:55;;;;;;;12.77;2.80;;;13.90;99.90;;;;;;5065577;28;20862;-74
2022/11/06 03:36:25;;;;;;;15.18;2.45;;;13.90;99.90;;;;;;5064919;28;20398;-76
2022/11/06 03:39:06;;;;;;;12.18;2.50;;;13.90;99.90;;;;;;5060031;28;20178;-77
2022/11/06 03:41:47;;;;;;;13.15;2.50;;;13.90;99.90;;;;;;5064518;28;20546;-79
2022/11/06 03:44:21;;;;;;;13.32;2.95;;;13.90;99.90;;;;;;5062291;28;20115;-76
2022/11/06 03:46:54;;;;;;;16.13;2.90;;;13.90;99.90;;;;;;5064832;28;20036;-75
2022/11/06 03:49:34;;;;;;;20.65;3.70;;;13.90;99.90;;;;;;5065439;28;20040;-74
2022/11/06 03:52:01;;;;;;;;;;;13.90;99.90;;;;;;5064887;28;20039;-74
2022/11/06 03:54:38;;;;;;;12.60;3.10;;;13.90;99.90;;;;;;5066841;28;19918;-74
2022/11/06 03:57:14;;;;;;;11.90;3.30;;;13.90;99.90;;;;;;5071147;28;20086;-76
2022/11/06 03:59:46;;;;;;;15.55;3.67;;;13.90;99.90;;;;;;5058123;28;20560;-74
2022/11/06 04:02:14;;;;;;;18.15;3.58;;;13.90;99.90;;;;;;5063584;28;20028;-76
2022/11/06 04:05:09;;;;;;;16.15;3.65;;;13.90;99.90;;;;;;5039567;28;20040;-74
2022/11/06 04:07:40;;;;;;;16.33;3.60;;;13.90;99.90;;;;;;5063502;28;20055;-74
2022/11/06 04:15:47;;;;;;;24.88;4.22;;;13.90;99.90;;;;;;5059697;28;20641;-75
2022/11/06 04:18:16;;;;;;;16.98;3.45;;;14.00;99.90;;;;;;5065043;28;20029;-74
2022/11/06 04:27:09;;;;;;;24.67;4.10;;;13.90;99.90;;;;;;5061403;28;20470;-75
2022/11/06 04:29:58;;;;;;;24.92;4.32;;;13.90;99.90;;;;;;5057607;28;20064;-75
2022/11/06 04:32:30;;;;;;;21.30;3.83;;;13.90;99.90;;;;;;5061205;28;20153;-72
2022/11/06 04:35:21;;;;;;;22.95;3.35;;;13.90;99.90;;;;;;5064186;28;20117;-74
2022/11/06 04:38:27;;;;;;;18.98;4.00;;;13.90;99.90;;;;;;5060308;28;20040;-72
2022/11/06 04:41:01;;;;;;;21.65;3.75;;;13.90;99.90;;;;;;5050817;28;20043;-72
2022/11/06 04:43:50;;;;;;;23.75;4.55;;;13.90;99.90;;;;;;5061162;28;20032;-76
2022/11/06 04:46:25;;;;;;;19.92;3.63;;;13.90;99.90;;;;;;5063861;28;20029;-73
2022/11/06 04:48:51;;;;;;;25.25;4.07;;;13.90;99.90;;;;;;5065503;28;20414;-76
2022/11/06 04:51:21;;;;;;;29.23;4.35;;;13.90;99.90;;;;;;5066963;28;20112;-76
2022/11/06 04:53:48;;;;;;;24.63;3.83;;;13.90;99.90;;;;;;5068280;28;20576;-73
2022/11/06 04:56:22;;;;;;;26.02;4.20;;;13.90;99.90;;;;;;5068711;28;20032;-78
2022/11/06 04:58:48;;;;;;;23.45;3.88;;;13.90;99.90;;;;;;5069102;28;20024;-76
2022/11/06 05:01:13;;;;;;;22.45;4.50;;;13.90;99.90;;;;;;5067850;28;20582;-74
2022/11/06 05:03:39;;;;;;;22.65;3.63;;;13.90;99.90;;;;;;5050176;28;20028;-74
2022/11/06 05:06:05;;;;;;;31.35;4.68;;;13.90;99.90;;;;;;5068105;28;20085;-78
2022/11/06 05:08:30;;;;;;;23.35;3.95;;;13.90;99.90;;;;;;5069456;28;20103;-77
2022/11/06 05:10:56;;;;;;;21.88;4.28;;;13.90;99.90;;;;;;5066057;28;20068;-74
2022/11/06 05:13:21;;;;;;;23.77;4.20;;;13.90;99.90;;;;;;5048603;28;20028;-75
2022/11/06 05:15:47;;;;;;;26.25;4.80;;;13.90;99.90;;;;;;5067419;28;20097;-74
2022/11/06 05:18:12;;;;;;;28.48;4.78;;;13.90;99.90;;;;;;5067594;28;20041;-75
2022/11/06 05:20:38;;;;;;;27.15;4.65;;;13.90;99.90;;;;;;5065173;28;20036;-73
2022/11/06 05:23:04;;;;;;;20.60;3.55;;;13.90;99.90;;;;;;5065802;28;20048;-77
2022/11/06 05:25:32;;;;;;;28.60;5.07;;;13.80;99.90;;;;;;5049997;28;20086;-75
2022/11/06 05:27:59;;;;;;;27.02;5.18;;;13.80;99.90;;;;;;5049674;28;20036;-75
2022/11/06 05:30:25;;;;;;;29.50;4.15;;;13.80;99.90;;;;;;5050883;28;20545;-78
2022/11/06 05:32:51;;;;;;;22.63;3.67;;;13.80;99.90;;;;;;5076700;28;20036;-72
2022/11/06 05:35:19;;;;;;;30.35;4.68;;;13.80;99.90;;;;;;5052895;28;20082;-74
2022/11/06 05:37:45;;;;;;;18.85;3.92;;;13.80;99.90;;;;;;5048096;28;20054;-73
2022/11/06 05:40:11;;;;;;;29.40;5.38;;;13.80;99.90;;;;;;5048441;28;20040;-75
2022/11/06 05:42:38;;;;;;;33.28;5.50;;;13.80;99.90;;;;;;5049481;28;21113;-75
2022/11/06 05:45:05;;;;;;;22.20;4.07;;;13.80;99.90;;;;;;5050956;28;20039;-74
2022/11/06 05:47:31;;;;;;;24.10;4.88;;;13.80;99.90;;;;;;5064645;28;20230;-76
2022/11/06 05:49:56;;;;;;;18.25;4.28;;;13.80;99.90;;;;;;5068692;28;21102;-75
2022/11/06 05:52:22;;;;;;;25.45;4.60;;;13.80;99.90;;;;;;5066688;28;20082;-76
2022/11/06 05:54:47;;;;;;;15.02;3.33;;;13.80;99.90;;;;;;5067277;28;20069;-76
2022/11/06 05:57:13;;;;;;;21.38;4.30;;;13.80;99.90;;;;;;5067074;28;20119;-74
2022/11/06 05:59:38;;;;;;;20.48;3.85;;;13.80;99.90;;;;;;5065289;28;20028;-76
2022/11/06 06:02:04;;;;;;;24.77;4.28;;;13.80;99.90;;;;;;5066662;28;20036;-75
2022/11/06 06:04:30;;;;;;;21.95;3.67;;;13.80;99.90;;;;;;5040952;28;20035;-75
2022/11/06 06:06:55;;;;;;;24.05;4.45;;;13.80;99.90;;;;;;5046385;28;20032;-75
2022/11/06 06:09:21;;;;;;;22.70;3.78;;;13.80;99.90;;;;;;5067673;28;20068;-77
2022/11/06 06:11:51;;;;;;;21.75;4.40;;;13.80;99.90;;;;;;5067227;28;20033;-76
2022/11/06 06:14:17;;;;;;;;;;;13.80;99.90;;;;;;5068681;28;20407;-75
2022/11/06 06:16:42;;;;;;;22.13;3.67;;;13.80;99.90;;;;;;5048451;28;19934;-76
2022/11/06 06:19:08;;;;;;;22.48;4.03;;;13.80;99.90;;;;;;5067716;28;20037;-76
2022/11/06 06:21:35;;;;;;;23.17;4.32;;;13.80;99.90;;;;;;5066940;28;20036;-78
2022/11/06 06:24:01;;;;;;;19.08;4.15;;;13.80;99.90;;;;;;5067238;28;20025;-77
2022/11/06 06:26:27;;;;;;;21.90;3.38;;;13.80;99.90;;;;;;5067477;28;20149;-77
2022/11/06 06:28:52;;;;;;;20.52;3.22;;;13.80;99.90;;;;;;5050009;28;20742;-74
2022/11/06 06:31:18;;;;;;;21.38;3.65;;;13.80;99.90;;;;;;5067971;28;20039;-76
2022/11/06 06:33:43;;;;;;;21.55;3.38;;;13.80;99.90;;;;;;5067483;28;20067;-75
2022/11/06 06:36:09;;;;;;;20.65;3.05;;;13.80;99.90;;;;;;5046636;28;20434;-76
2022/11/06 06:38:35;;;;;;;16.45;3.35;;;13.80;99.90;;;;;;5048365;28;20475;-76
2022/11/06 06:41:03;;;;;;;18.45;3.33;;;13.70;99.90;;;;;;5056218;28;20120;-76
2022/11/06 06:43:28;;;;;;;22.05;3.22;;;13.80;99.90;;;;;;5065570;28;20056;-74
2022/11/06 06:46:01;;;;;;;26.52;3.97;;;13.70;99.90;;;;;;5060998;28;20067;-74
2022/11/06 06:48:26;;;;;;;25.63;4.22;;;13.80;99.90;;;;;;5066126;28;20044;-74
2022/11/06 06:50:55;;;;;;;20.55;3.53;;;13.80;99.90;;;;;;5066607;28;20036;-75
2022/11/06 06:53:21;;;;;;;28.40;4.47;;;13.80;99.90;;;;;;5067886;28;20094;-76
2022/11/06 06:55:46;;;;;;;23.27;4.22;;;13.80;99.90;;;;;;5066756;28;20308;-74
2022/11/06 06:58:12;;;;;;;22.42;3.67;;;13.80;99.90;;;;;;5066242;28;20047;-75
2022/11/06 07:00:38;;;;;;;19.73;3.15;;;13.80;99.90;;;;;;5046674;28;20037;-75
2022/11/06 07:03:03;;;;;;;22.63;3.50;;;13.80;99.90;;;;;;5063514;28;20058;-77
2022/11/06 07:05:30;;;;;;;20.75;3.97;;;13.80;99.90;;;;;;5066560;28;20021;-75
2022/11/06 07:07:55;;;;;;;18.58;3.15;;;13.80;99.90;;;;;;5069604;28;20107;-75
2022/11/06 07:10:21;;;;;;;28.17;3.67;;;13.80;99.90;;;;;;5057640;28;20115;-78
2022/11/06 07:12:47;;;;;;;23.55;3.47;;;13.80;99.90;;;;;;5064976;28;20028;-77
2022/11/06 07:15:13;;;;;;;17.25;3.05;;;13.90;99.90;;;;;;5045609;28;20036;-76
2022/11/06 07:17:38;;;;;;;16.15;3.55;;;13.90;99.90;;;;;;5066196;28;20036;-77
2022/11/06 07:20:05;;;;;;;15.95;4.30;;;13.90;99.90;;;;;;5065872;28;20036;-74
2022/11/06 07:22:31;;;;;;;21.67;3.65;;;13.90;99.90;;;;;;5046537;28;20402;-77
2022/11/06 07:24:56;;;;;;;18.88;3.55;;;13.90;99.90;;;;;;5046163;28;20629;-76
2022/11/06 07:27:22;;;;;;;20.92;3.47;;;13.90;99.90;;;;;;5066125;28;20501;-77
2022/11/06 07:29:47;;;;;;;22.48;3.95;;;13.80;99.90;;;;;;5047902;28;20031;-80
2022/11/06 07:32:13;;;;;;;23.48;3.80;;;13.90;99.90;;;;;;5064798;28;20751;-71
2022/11/06 07:34:38;;;;;;;22.85;3.60;;;13.80;99.90;;;;;;5059633;28;20446;-76
2022/11/06 07:37:05;;;;;;;19.20;3.50;;;13.90;99.90;;;;;;5046586;28;20069;-74
2022/11/06 07:39:30;;;;;;;16.00;3.35;;;13.90;99.90;;;;;;5055814;28;20067;-79
2022/11/06 07:41:56;;;;;;;22.50;3.22;;;13.90;99.90;;;;;;5061601;28;20052;-74
2022/11/06 07:44:21;;;;;;;16.27;2.65;;;13.80;99.90;;;;;;5059963;28;20032;-75
2022/11/06 07:46:47;;;;;;;20.38;3.10;;;13.80;99.90;;;;;;5060373;28;20115;-76
2022/11/06 07:49:14;;;;;;;18.35;2.80;;;13.80;99.90;;;;;;5061818;28;20041;-75
2022/11/06 07:51:43;;;;;;;18.65;2.58;;;13.80;99.90;;;;;;5063438;28;20039;-77
2022/11/06 07:54:12;;;;;;;15.38;2.33;;;13.80;99.90;;;;;;5064357;28;20513;-74
2022/11/06 07:56:37;;;;;;;12.48;1.98;;;13.80;99.90;;;;;;5062729;28;20060;-74
2022/11/06 07:59:03;;;;;;;14.73;2.78;;;13.80;99.90;;;;;;5062710;28;20140;-77
2022/11/06 08:01:29;;;;;;;13.18;2.55;;;13.80;99.90;;;;;;5064051;28;20418;-69
2022/11/06 08:03:55;;;;;;;12.32;2.28;;;13.80;99.90;;;;;;5065887;28;20036;-73
2022/11/06 08:06:21;;;;;;;11.13;1.98;;;13.80;99.90;;;;;;5063801;28;20093;-76
2022/11/06 08:08:47;;;;;;;19.40;2.67;;;13.80;99.90;;;;;;5065514;28;20048;-74
2022/11/06 08:11:13;;;;;;;14.05;1.80;;;13.90;99.90;;;;;;5065520;28;20029;-72
2022/11/06 08:13:38;;;;;;;17.13;3.17;;;13.90;99.90;;;;;;5065165;28;20051;-76
2022/11/06 08:16:09;;;;;;;10.52;2.53;;;13.90;99.90;;;;;;5047432;28;20469;-76
2022/11/06 08:18:35;;;;;;;12.43;2.03;;;13.90;99.90;;;;;;5064754;28;20032;-77
2022/11/06 08:21:02;;;;;;;19.75;2.80;;;13.90;99.90;;;;;;5057905;28;20047;-74
2022/11/06 08:23:28;;;;;;;15.52;2.88;;;13.90;99.90;;;;;;5060109;28;20060;-72
2022/11/06 08:25:59;;;;;;;14.25;2.53;;;13.90;99.90;;;;;;5047374;28;20118;-75
2022/11/06 08:28:25;;;;;;;15.07;2.83;;;13.80;99.90;;;;;;5067055;28;20089;-74
2022/11/06 08:30:52;;;;;;;16.65;3.03;;;13.80;99.90;;;;;;5068810;28;20032;-73
2022/11/06 08:33:18;;;;;;;13.50;3.35;;;13.80;99.90;;;;;;5049496;28;20043;-74
2022/11/06 08:35:44;;;;;;;17.17;2.85;;;13.90;99.90;;;;;;5068177;28;20036;-75
2022/11/06 08:38:09;;;;;;;21.85;2.75;;;13.90;99.90;;;;;;5068167;28;20086;-71
2022/11/06 08:40:37;;;;;;;19.00;2.72;;;13.90;99.90;;;;;;5068654;28;20036;-75
2022/11/06 08:43:07;;;;;;;15.18;3.15;;;13.90;99.90;;;;;;5068789;28;20032;-74
2022/11/06 08:45:41;;;;;;;16.17;2.38;;;13.80;99.90;;;;;;5051112;28;20033;-75
2022/11/06 08:48:08;;;;;;;13.50;2.15;;;13.80;99.90;;;;;;5066746;28;20111;-72
2022/11/06 08:50:38;;;;;;;14.75;2.08;;;13.80;99.90;;;;;;5068095;28;20966;-71
2022/11/06 08:53:05;;;;;;;9.50;1.52;;;13.80;99.90;;;;;;5069383;28;20040;-73
2022/11/06 08:55:33;;;;;;;11.20;1.98;;;13.80;99.90;;;;;;5043796;28;20044;-74
2022/11/06 08:57:59;;;;;;;11.15;2.35;;;13.80;99.90;;;;;;5044747;28;20055;-72
2022/11/06 09:00:25;;;;;;;10.65;1.88;;;13.80;99.90;;;;;;5049021;28;20037;-73
2022/11/06 09:02:56;;;;;;;10.57;2.17;;;13.80;99.90;;;;;;5066073;28;20075;-71
2022/11/06 09:05:21;;;;;;;12.55;2.20;;;13.80;99.90;;;;;;5067510;28;20047;-74
2022/11/06 09:07:47;;;;;;;10.93;2.20;;;13.80;99.90;;;;;;5045704;28;20127;-72
2022/11/06 09:10:12;;;;;;;11.93;2.33;;;13.80;99.90;;;;;;5066740;28;20118;-74
2022/11/06 09:12:38;;;;;;;10.23;2.35;;;13.80;99.90;;;;;;5065577;28;20033;-74
2022/11/06 09:15:04;;;;;;;14.43;2.30;;;13.80;99.90;;;;;;5067291;28;20061;-75
2022/11/06 09:17:30;;;;;;;10.35;1.90;;;13.80;99.90;;;;;;5043301;28;20681;-72
2022/11/06 09:19:55;;;;;;;11.38;1.90;;;13.80;99.90;;;;;;5068949;28;20037;-71
2022/11/06 09:22:21;;;;;;;11.77;1.95;;;13.80;99.90;;;;;;5068945;28;20032;-74
2022/11/06 09:24:46;;;;;;;15.07;2.80;;;13.80;99.90;;;;;;5047905;28;20035;-78
2022/11/06 09:27:12;;;;;;;13.52;2.83;;;13.80;99.90;;;;;;5045842;28;20440;-76
2022/11/06 09:29:39;;;;;;;15.45;2.40;;;13.80;99.90;;;;;;5047138;28;20029;-72
2022/11/06 09:32:06;;;;;;;16.15;2.50;;;13.80;99.90;;;;;;5068595;28;20597;-77
2022/11/06 09:34:31;;;;;;;11.60;1.60;;;13.80;99.90;;;;;;5064307;28;20032;-72
2022/11/06 09:36:57;;;;;;;12.68;1.90;;;13.80;99.90;;;;;;5067344;28;20044;-74
2022/11/06 09:39:22;;;;;;;9.38;1.55;;;13.80;99.90;;;;;;5066944;28;20036;-71
2022/11/06 09:41:58;;;;;;;7.82;1.40;;;13.70;99.90;;;;;;5068616;28;20551;-74
2022/11/06 09:44:35;;;;;;;14.45;2.10;;;13.70;99.90;;;;;;5059820;28;20028;-73
2022/11/06 09:47:08;;;;;;;14.38;1.77;;;13.60;99.90;;;;;;5067299;28;20035;-75
2022/11/06 09:49:44;;;;;;;8.68;1.63;;;13.60;99.90;;;;;;5047027;28;20041;-74
2022/11/06 09:52:30;;;;;;;16.45;2.92;;;13.40;99.90;;;;;;5058597;28;20036;-78
2022/11/06 09:55:01;;;;;;;20.83;4.07;;;13.20;99.90;;;;;;5044699;28;20085;-75
2022/11/06 09:57:53;;;;;;;21.48;2.25;;;13.00;99.90;;;;;;5039376;28;20024;-74
2022/11/06 10:00:19;;;;;;;24.35;3.80;;;13.00;99.90;;;;;;5043208;28;20044;-74
2022/11/06 10:02:51;;;;;;;22.00;3.13;;;13.00;99.90;;;;;;5066377;28;20027;-75
2022/11/06 10:05:17;;;;;;;15.88;2.20;;;13.00;99.90;;;;;;5064860;28;20581;-75
2022/11/06 10:07:44;;;;;;;17.92;3.00;;;13.00;99.90;;;;;;5044318;28;20496;-74
2022/11/06 10:10:23;;;;;;;15.18;2.75;;;13.00;99.90;;;;;;5039266;28;20512;-75
2022/11/06 10:13:13;;;;;;;11.85;1.95;;;13.00;99.90;;;;;;5062027;28;20028;-74
2022/11/06 10:16:28;;;;;;;14.40;2.53;;;13.00;99.90;;;;;;5063951;28;20043;-75
2022/11/06 10:19:30;;;;;;;13.77;2.08;;;12.90;99.90;;;;;;4976324;28;20049;-74
2022/11/06 10:22:15;;;;;;;15.43;1.65;;;12.90;99.90;;;;;;4984148;28;20046;-74
2022/11/06 10:24:43;;;;;;;17.58;2.70;;;12.90;99.90;;;;;;5051907;28;20067;-73
2022/11/06 10:27:29;;;;;;;12.50;1.77;;;12.90;99.90;;;;;;5061805;28;20150;-73
2022/11/06 10:29:57;;;;;;;19.00;2.60;;;12.90;99.90;;;;;;5061195;28;20028;-75
2022/11/06 10:32:29;;;;;;;19.02;3.63;;;12.90;99.90;;;;;;5062466;28;20386;-74
2022/11/06 10:35:20;;;;;;;14.73;2.63;;;12.90;99.90;;;;;;5054359;28;20028;-76
2022/11/06 10:37:48;;;;;;;15.70;2.55;;;13.00;99.90;;;;;;5038961;28;20071;-74
2022/11/06 10:40:19;;;;;;;22.00;6.53;;;13.00;99.90;;;;;;5062103;28;20419;-74
2022/11/06 10:42:58;;;;;;;19.05;3.58;;;13.00;99.90;;;;;;5047877;28;20024;-74
2022/11/06 10:45:26;;;;;;;21.33;3.53;;;13.00;99.90;;;;;;5065584;28;20410;-74
2022/11/06 10:47:58;;;;;;;16.02;3.00;;;13.00;99.90;;;;;;5060622;28;20547;-74
2022/11/06 10:50:29;;;;;;;12.40;2.22;;;13.10;99.90;;;;;;5066015;28;20032;-74
2022/11/06 10:53:31;;;;;;;13.25;2.55;;;13.10;99.90;;;;;;5047326;28;20357;-73
2022/11/06 10:56:13;;;;;;;16.65;3.25;;;13.10;99.90;;;;;;5064254;28;20032;-74
2022/11/06 10:58:39;;;;;;;16.08;2.97;;;13.20;99.90;;;;;;5066215;28;20036;-74
2022/11/06 11:01:11;;;;;;;16.27;3.70;;;13.20;99.90;;;;;;5065503;28;20051;-74
2022/11/06 11:03:41;;;;;;;17.00;6.70;;;13.20;99.90;;;;;;5063366;28;20037;-74
2022/11/06 11:06:07;;;;;;;14.10;2.67;;;13.20;99.90;;;;;;5058660;28;20029;-74
2022/11/06 11:08:36;;;;;;;19.20;5.50;;;13.20;99.90;;;;;;5061972;28;20028;-75
2022/11/06 11:11:15;;;;;;;21.15;6.57;;;13.20;99.90;;;;;;5062764;28;20115;-74
2022/11/06 11:13:42;;;;;;;15.07;3.70;;;13.20;99.90;;;;;;5063530;28;20116;-73
2022/11/06 11:16:22;;;;;;;13.30;3.35;;;13.20;99.90;;;;;;5045047;28;20435;-73
2022/11/06 11:18:49;;;;;;;12.20;3.20;;;13.20;99.90;;;;;;5063063;28;20064;-73
2022/11/06 11:21:18;;;;;;;8.85;2.40;;;13.20;99.90;;;;;;5065147;28;20033;-73
2022/11/06 11:23:44;;;;;;;11.85;3.03;;;13.20;99.90;;;;;;5045522;28;20119;-72
2022/11/06 11:26:23;;;;;;;12.35;3.20;;;13.20;99.90;;;;;;5064695;28;20115;-73
2022/11/06 11:28:54;;;;;;;14.32;3.58;;;13.10;99.90;;;;;;5066404;28;20166;-73
2022/11/06 11:31:28;;;;;;;15.15;2.92;;;13.10;99.90;;;;;;5066534;28;20024;-72
2022/11/06 11:33:56;;;;;;;12.85;3.15;;;13.10;99.90;;;;;;5064632;28;20028;-73
2022/11/06 11:36:22;;;;;;;11.85;2.60;;;13.00;99.90;;;;;;5065573;28;20021;-73
2022/11/06 11:38:48;;;;;;;18.77;4.15;;;13.00;99.90;;;;;;5044707;28;20036;-73
2022/11/06 11:41:20;;;;;;;18.45;6.93;;;13.10;99.90;;;;;;5065288;28;20064;-74
2022/11/06 11:44:05;;;;;;;14.95;5.35;;;13.00;99.90;;;;;;5055575;28;20025;-73
2022/11/06 11:46:32;;;;;;;28.25;10.43;;;13.00;99.90;;;;;;5051587;28;20037;-73
2022/11/06 11:48:58;;;;;;;17.15;4.85;;;13.00;99.90;;;;;;5062107;28;20055;-73
2022/11/06 11:51:30;;;;;;;18.02;6.03;;;13.00;99.90;;;;;;5064085;28;20040;-73
2022/11/06 11:54:25;;;;;;;10.40;2.67;;;13.00;99.90;;;;;;5064293;28;20039;-74
2022/11/06 11:57:04;;;;;;;16.75;3.83;;;13.00;99.90;;;;;;5062821;28;20041;-73
2022/11/06 11:59:37;;;;;;;13.88;3.22;;;13.00;99.90;;;;;;5068136;28;20587;-73
2022/11/06 12:02:21;;;;;;;14.45;2.50;;;13.00;99.90;;;;;;5067611;28;20047;-73
2022/11/06 12:04:52;;;;;;;15.07;3.10;;;13.00;99.90;;;;;;5054035;28;20102;-73
2022/11/06 12:07:33;;;;;;;15.45;2.40;;;13.10;99.90;;;;;;5052117;28;20034;-73
2022/11/06 12:10:00;;;;;;;14.77;2.25;;;13.00;99.90;;;;;;5065930;28;20028;-72
2022/11/06 12:12:30;;;;;;;14.48;2.78;;;13.10;99.90;;;;;;5070811;28;20029;-72
2022/11/06 12:15:20;;;;;;;8.80;1.80;;;13.10;99.90;;;;;;5070932;28;20028;-73
2022/11/06 12:18:03;;;;;;;15.35;2.03;;;13.10;99.90;;;;;;5069324;28;20043;-72
2022/11/06 12:20:51;;;;;;;10.57;1.77;;;13.10;99.90;;;;;;5062335;28;20170;-73
2022/11/06 12:23:32;;;;;;;16.20;3.80;;;13.10;99.90;;;;;;5071189;28;20033;-72
2022/11/06 12:26:17;;;;;;;14.10;3.63;;;13.10;99.90;;;;;;5071260;28;20047;-73
2022/11/06 12:28:45;;;;;;;13.15;2.10;;;13.10;99.90;;;;;;5072508;28;20604;-72
2022/11/06 12:31:27;;;;;;;20.73;2.63;;;13.20;99.90;;;;;;5072610;28;20024;-73
2022/11/06 12:33:55;;;;;;;13.55;2.58;;;13.10;99.90;;;;;;5066843;28;20139;-73
2022/11/06 12:36:25;;;;;;;14.63;3.78;;;13.20;99.90;;;;;;5053881;28;20535;-73
2022/11/06 12:38:59;;;;;;;17.13;3.92;;;13.20;99.90;;;;;;5072112;28;20068;-73
2022/11/06 12:41:36;;;;;;;16.15;3.80;;;13.20;99.90;;;;;;5054364;28;20444;-73
2022/11/06 12:44:02;;;;;;;20.77;4.85;;;13.30;99.90;;;;;;5071406;28;20115;-73
2022/11/06 12:47:05;;;;;;;15.85;4.40;;;13.30;99.90;;;;;;5071896;28;20038;-72
2022/11/06 12:49:58;;;;;;;21.25;4.60;;;13.40;99.90;;;;;;5071856;28;20028;-71
2022/11/06 12:52:49;;;;;;;21.48;3.58;;;13.40;99.90;;;;;;5071970;28;20115;-70
2022/11/06 12:55:56;;;;;;;18.15;3.30;;;13.40;99.90;;;;;;5066970;28;20041;-73
2022/11/06 12:58:39;;;;;;;16.40;2.72;;;13.30;99.90;;;;;;5058082;28;20052;-72
2022/11/06 13:01:19;;;;;;;14.85;2.20;;;13.30;99.90;;;;;;5071782;28;20037;-75
2022/11/06 13:04:02;;;;;;;16.75;2.50;;;13.30;99.90;;;;;;5070582;28;20030;-74
2022/11/06 13:07:13;;;;;;;21.70;2.75;;;13.30;99.90;;;;;;5068814;28;20102;-73
2022/11/06 13:09:54;;;;;;;13.77;2.47;;;13.30;99.90;;;;;;5053057;28;20036;-74
2022/11/06 13:12:45;;;;;;;17.95;2.67;;;13.30;99.90;;;;;;5067991;28;20024;-73